createdAt,value
2023-05-01T00:00:21.780Z,99196.15
2023-05-01T00:10:53.874Z,99197.80
2023-05-01T00:21:19.497Z,99194.58
2023-05-01T00:31:45.983Z,99192.05
2023-05-01T00:42:11.579Z,99190.06
2023-05-01T00:52:37.380Z,99186.73
2023-05-01T01:03:04.602Z,99180.25
2023-05-01T01:13:36.384Z,99177.75
2023-05-01T01:24:26.555Z,99167.67
2023-05-01T01:34:55.277Z,99163.33
2023-05-01T01:45:25.034Z,99155.64
2023-05-01T01:55:53.327Z,99142.42
2023-05-01T02:06:20.697Z,99139.77
2023-05-01T02:16:48.531Z,99129.80
2023-05-01T02:27:17.658Z,99127.36
2023-05-01T02:37:44.395Z,99120.21
2023-05-01T02:48:15.050Z,99111.96
2023-05-01T02:58:50.734Z,99114.70
2023-05-01T03:09:16.447Z,99120.66
2023-05-01T03:19:42.874Z,99125.95
2023-05-01T03:30:10.719Z,99122.36
2023-05-01T03:40:35.994Z,99103.64
2023-05-01T03:51:01.629Z,99099.11
2023-05-01T04:01:27.646Z,99096.07
2023-05-01T04:11:53.648Z,99092.39
2023-05-01T04:22:20.039Z,99083.30
2023-05-01T04:32:45.790Z,99080.40
2023-05-01T04:43:11.485Z,99085.07
2023-05-01T04:53:37.350Z,99091.47
2023-05-01T05:04:03.721Z,99094.02
2023-05-01T05:14:30.003Z,99092.94
2023-05-01T05:25:00.374Z,99084.97
2023-05-01T05:35:26.215Z,99084.63
2023-05-01T05:45:52.142Z,99076.60
2023-05-01T05:56:18.074Z,99066.35
2023-05-01T06:06:44.118Z,99057.78
2023-05-01T06:17:10.043Z,99059.30
2023-05-01T06:27:35.850Z,99058.65
2023-05-01T06:38:02.973Z,99057.58
2023-05-01T06:48:29.826Z,99050.14
2023-05-01T06:58:55.977Z,99046.98
2023-05-01T07:09:22.520Z,99042.41
2023-05-01T07:19:48.384Z,99033.66
2023-05-01T07:30:15.127Z,99032.59
2023-05-01T07:40:41.182Z,99024.81
2023-05-01T07:51:07.805Z,99021.67
2023-05-01T08:01:35.073Z,99014.38
2023-05-01T08:12:02.118Z,99018.02
2023-05-01T08:22:27.892Z,99016.76
2023-05-01T08:32:53.607Z,99020.78
2023-05-01T08:43:20.122Z,99006.70
2023-05-01T08:53:47.971Z,98993.88
2023-05-01T09:04:14.502Z,98993.30
2023-05-01T09:14:40.864Z,98978.09
2023-05-01T09:25:07.606Z,98967.61
2023-05-01T09:35:34.322Z,98955.28
2023-05-01T09:46:09.655Z,98955.02
2023-05-01T09:56:47.195Z,98947.13
2023-05-01T10:07:14.639Z,98945.06
2023-05-01T10:17:41.773Z,98937.41
2023-05-01T10:28:09.992Z,98920.44
2023-05-01T10:38:37.865Z,98914.66
2023-05-01T10:49:04.249Z,98901.80
2023-05-01T10:59:50.367Z,98887.55
2023-05-01T11:10:29.904Z,98879.83
2023-05-01T11:20:55.442Z,98855.13
2023-05-01T11:31:22.021Z,98840.61
2023-05-01T11:41:48.604Z,98821.91
2023-05-01T11:52:14.760Z,98810.41
2023-05-01T12:02:40.869Z,98795.80
2023-05-01T12:13:07.436Z,98788.83
2023-05-01T12:23:37.562Z,98775.21
2023-05-01T12:34:06.167Z,98761.34
2023-05-01T12:44:32.581Z,98751.67
2023-05-01T12:55:05.530Z,98740.52
2023-05-01T13:05:31.550Z,98726.04
2023-05-01T13:16:07.172Z,98711.88
2023-05-01T13:26:36.171Z,98703.50
2023-05-01T13:37:03.789Z,98698.46
2023-05-01T13:47:29.670Z,98691.02
2023-05-01T13:57:55.840Z,98670.11
2023-05-01T14:08:26.107Z,98667.95
2023-05-01T14:18:54.589Z,98663.67
2023-05-01T14:29:27.295Z,98648.41
2023-05-01T14:39:53.188Z,98635.40
2023-05-01T14:50:22.353Z,98630.81
2023-05-01T15:00:48.170Z,98622.05
2023-05-01T15:11:15.569Z,98614.72
2023-05-01T15:21:41.466Z,98609.06
2023-05-01T15:32:12.388Z,98594.39
2023-05-01T15:42:40.255Z,98587.77
2023-05-01T15:53:05.733Z,98588.86
2023-05-01T16:03:32.520Z,98589.83
2023-05-01T16:13:58.526Z,98585.73
2023-05-01T16:24:24.376Z,98585.89
2023-05-01T16:34:50.228Z,98579.12
2023-05-01T16:45:15.940Z,98577.50
2023-05-01T16:55:41.967Z,98567.04
2023-05-01T17:06:08.425Z,98568.27
2023-05-01T17:16:35.333Z,98568.18
2023-05-01T17:27:01.069Z,98562.27
2023-05-01T17:37:27.041Z,98566.77
2023-05-01T17:47:53.943Z,98563.65
2023-05-01T17:58:20.673Z,98570.16
2023-05-01T18:08:46.435Z,98563.33
2023-05-01T18:19:12.317Z,98564.21
2023-05-01T18:29:39.236Z,98563.23
2023-05-01T18:40:05.888Z,98568.18
2023-05-01T18:50:31.451Z,98570.70
2023-05-01T19:00:57.378Z,98571.83
2023-05-01T19:11:23.602Z,98575.36
2023-05-01T19:21:51.050Z,98574.42
2023-05-01T19:32:17.753Z,98575.80
2023-05-01T19:42:43.682Z,98575.02
2023-05-01T19:53:10.154Z,98575.30
2023-05-01T20:03:36.041Z,98578.38
2023-05-01T20:14:03.629Z,98583.34
2023-05-01T20:24:29.094Z,98584.00
2023-05-01T20:34:55.600Z,98590.10
2023-05-01T20:45:21.397Z,98595.36
2023-05-01T20:55:47.961Z,98606.00
2023-05-01T21:06:16.323Z,98612.72
2023-05-01T21:16:42.286Z,98616.06
2023-05-01T21:27:10.396Z,98622.50
2023-05-01T21:48:21.305Z,98628.73
2023-05-01T21:58:46.995Z,98633.12
2023-05-01T22:09:12.625Z,98636.77
2023-05-01T22:19:39.041Z,98643.41
2023-05-01T22:30:06.168Z,98644.38
2023-05-01T22:40:32.154Z,98644.98
2023-05-01T22:50:57.582Z,98649.59
2023-05-01T23:01:23.824Z,98651.42
2023-05-01T23:11:50.165Z,98654.38
2023-05-01T23:22:16.155Z,98646.85
2023-05-01T23:32:42.637Z,98644.48
2023-05-01T23:43:08.436Z,98638.10
2023-05-01T23:53:34.410Z,98632.95
